Time;durP1;ratioP1;P1;durP2;ratioP2;P2;SDS_P1;SDS_P2;PMS_P1;PMS_P2;Temp;Humidity;BMP_temperature;BMP_pressure;BME280_temperature;BME280_humidity;BME280_pressure;Samples;Min_cycle;Max_cycle;Signal;HPM_P1;HPM_P2
2022/06/16 00:00:36;;;;;;;0.47;0.47;;;22.80;99.90;;;;;;5049781;28;20665;-83
2022/06/16 00:03:03;;;;;;;0.50;0.50;;;22.80;99.90;;;;;;5045616;28;20190;-83
2022/06/16 00:05:31;;;;;;;0.30;0.30;;;22.80;99.90;;;;;;5048600;28;20197;-83
2022/06/16 00:07:56;;;;;;;0.40;0.40;;;22.70;99.90;;;;;;5045246;28;20209;-82
2022/06/16 00:10:23;;;;;;;0.87;0.87;;;22.70;99.90;;;;;;5045432;28;20263;-83
2022/06/16 00:12:49;;;;;;;1.23;1.13;;;22.60;99.90;;;;;;5049202;28;20201;-83
2022/06/16 00:15:18;;;;;;;2.00;0.40;;;22.60;99.90;;;;;;5043439;28;20342;-83
2022/06/16 00:17:44;;;;;;;0.67;0.50;;;22.50;99.90;;;;;;5047971;28;20178;-83
2022/06/16 00:20:11;;;;;;;0.40;0.40;;;22.40;99.90;;;;;;5045936;28;20193;-84
2022/06/16 00:22:38;;;;;;;0.50;0.50;;;22.30;99.90;;;;;;5048035;28;20204;-82
2022/06/16 00:25:05;;;;;;;0.37;0.37;;;22.30;99.90;;;;;;5046951;28;20191;-83
2022/06/16 00:27:30;;;;;;;0.30;0.30;;;22.20;99.90;;;;;;5048193;28;20741;-83
2022/06/16 00:29:56;;;;;;;1.27;1.17;;;22.20;99.90;;;;;;5049350;28;20205;-83
2022/06/16 00:32:22;;;;;;;0.30;0.30;;;22.20;99.90;;;;;;5046534;28;20186;-81
2022/06/16 00:34:48;;;;;;;0.73;0.73;;;22.10;99.90;;;;;;5046856;28;21206;-82
2022/06/16 00:37:14;;;;;;;0.70;0.70;;;22.00;99.90;;;;;;5047808;28;20209;-82
2022/06/16 00:39:39;;;;;;;0.40;0.40;;;22.00;99.90;;;;;;5048760;28;20194;-82
2022/06/16 00:42:17;;;;;;;0.50;0.50;;;21.90;99.90;;;;;;5044347;28;20190;-82
2022/06/16 00:44:45;;;;;;;0.30;0.30;;;21.90;99.90;;;;;;5047432;28;20182;-82
2022/06/16 00:47:11;;;;;;;0.63;0.63;;;21.90;99.90;;;;;;5042709;28;20209;-82
2022/06/16 00:49:41;;;;;;;0.60;0.60;;;21.90;99.90;;;;;;5047248;28;20189;-84
2022/06/16 00:52:18;;;;;;;0.40;0.40;;;21.90;99.90;;;;;;5047361;28;20185;-83
2022/06/16 00:54:51;;;;;;;0.70;0.60;;;21.90;99.90;;;;;;5043680;28;20272;-82
2022/06/16 00:57:22;;;;;;;0.40;0.40;;;21.80;99.90;;;;;;5046809;28;20201;-83
2022/06/16 00:59:48;;;;;;;0.47;0.43;;;21.90;99.90;;;;;;5049039;28;20183;-82
2022/06/16 01:02:15;;;;;;;0.97;0.40;;;21.80;99.90;;;;;;5047897;28;20201;-82
2022/06/16 01:04:52;;;;;;;0.83;0.70;;;21.70;99.90;;;;;;5045489;28;20186;-82
2022/06/16 01:07:29;;;;;;;0.50;0.50;;;21.60;99.90;;;;;;5047610;28;20216;-82
2022/06/16 01:09:56;;;;;;;0.63;0.60;;;21.60;99.90;;;;;;5047155;28;20193;-83
2022/06/16 01:15:34;;;;;;;0.40;0.40;;;21.60;99.90;;;;;;5047685;28;20279;-83
2022/06/16 01:18:21;;;;;;;0.77;0.40;;;21.50;99.90;;;;;;5046115;28;20264;-84
2022/06/16 01:20:56;;;;;;;0.83;0.37;;;21.60;99.90;;;;;;5047801;28;20181;-82
2022/06/16 01:24:02;;;;;;;0.30;0.30;;;21.40;99.90;;;;;;5045710;28;20189;-83
2022/06/16 01:26:43;;;;;;;0.30;0.30;;;21.50;99.90;;;;;;5046840;28;20306;-83
2022/06/16 01:29:30;;;;;;;0.43;0.43;;;21.40;99.90;;;;;;5043684;28;20570;-82
2022/06/16 01:32:09;;;;;;;0.50;0.50;;;21.40;99.90;;;;;;5042516;28;20177;-83
2022/06/16 01:34:55;;;;;;;0.57;0.50;;;21.40;99.90;;;;;;5045480;28;20708;-83
2022/06/16 01:37:34;;;;;;;0.67;0.50;;;21.20;99.90;;;;;;5047231;28;20289;-83
2022/06/16 01:40:17;;;;;;;0.70;0.70;;;21.20;99.90;;;;;;5046987;28;20196;-84
2022/06/16 01:42:58;;;;;;;1.20;1.10;;;21.30;99.90;;;;;;5044997;28;20185;-82
2022/06/16 01:45:27;;;;;;;1.50;0.50;;;21.20;99.90;;;;;;5044741;28;20214;-83
2022/06/16 01:47:53;;;;;;;0.60;0.60;;;21.20;99.90;;;;;;5047094;28;20174;-83
2022/06/16 01:50:28;;;;;;;0.57;0.40;;;21.20;99.90;;;;;;5045896;28;20201;-82
2022/06/16 01:52:57;;;;;;;0.47;0.47;;;21.20;99.90;;;;;;5045985;28;20252;-84
2022/06/16 01:55:33;;;;;;;0.40;0.40;;;21.20;99.90;;;;;;5046855;28;20198;-83
2022/06/16 01:58:08;;;;;;;0.50;0.50;;;21.20;99.90;;;;;;5046192;28;21216;-83
2022/06/16 02:00:34;;;;;;;0.50;0.50;;;21.20;99.90;;;;;;5045713;28;20195;-83
2022/06/16 02:03:20;;;;;;;0.87;0.63;;;21.20;99.90;;;;;;5046775;28;20264;-82
2022/06/16 02:05:53;;;;;;;0.43;0.43;;;21.30;99.90;;;;;;5043639;28;20224;-83
2022/06/16 02:08:24;;;;;;;0.53;0.53;;;21.30;99.90;;;;;;5045263;28;20277;-83
2022/06/16 02:10:54;;;;;;;0.60;0.53;;;21.30;99.90;;;;;;5043720;28;20209;-82
2022/06/16 02:13:24;;;;;;;0.73;0.73;;;21.00;99.90;;;;;;5045682;28;20185;-83
2022/06/16 02:16:01;;;;;;;0.50;0.50;;;20.70;99.90;;;;;;5044621;28;20226;-82
2022/06/16 02:18:35;;;;;;;0.53;0.53;;;20.60;99.90;;;;;;5044399;28;20264;-83
2022/06/16 02:21:34;;;;;;;0.57;0.57;;;20.60;99.90;;;;;;5044731;28;20569;-83
2022/06/16 02:24:02;;;;;;;0.57;0.57;;;20.50;99.90;;;;;;5045620;28;20181;-83
2022/06/16 02:26:28;;;;;;;0.30;0.30;;;20.20;99.90;;;;;;5045891;28;20209;-83
2022/06/16 02:28:57;;;;;;;0.50;0.40;;;20.10;99.90;;;;;;5046298;28;20558;-82
2022/06/16 02:31:37;;;;;;;2.47;0.80;;;20.10;99.90;;;;;;5043881;28;20728;-82
2022/06/16 02:34:23;;;;;;;0.77;0.77;;;20.00;99.90;;;;;;5044427;28;20284;-83
2022/06/16 02:37:18;;;;;;;0.40;0.40;;;19.90;99.90;;;;;;5044968;28;20205;-83
2022/06/16 02:39:57;;;;;;;0.40;0.40;;;19.80;99.90;;;;;;5043428;28;20190;-83
2022/06/16 02:42:55;;;;;;;0.43;0.43;;;20.00;99.90;;;;;;5044075;28;20185;-82
2022/06/16 02:45:39;;;;;;;0.27;0.27;;;20.20;99.90;;;;;;5044379;28;20217;-82
2022/06/16 02:48:15;;;;;;;0.33;0.33;;;20.40;99.90;;;;;;5045870;28;20193;-82
2022/06/16 02:50:59;;;;;;;0.37;0.33;;;20.50;99.90;;;;;;5045475;28;20319;-83
2022/06/16 02:53:46;;;;;;;0.53;0.37;;;20.50;99.90;;;;;;5037242;28;20186;-82
2022/06/16 02:56:41;;;;;;;0.60;0.60;;;20.50;99.90;;;;;;5045637;28;20205;-83
2022/06/16 02:59:15;;;;;;;0.83;0.47;;;20.60;99.90;;;;;;5044153;28;20174;-83
2022/06/16 03:01:41;;;;;;;0.60;0.50;;;20.70;99.90;;;;;;5045447;28;20187;-82
2022/06/16 03:04:14;;;;;;;0.70;0.50;;;20.70;99.90;;;;;;5047572;28;20193;-83
2022/06/16 03:06:40;;;;;;;0.80;0.80;;;20.80;99.90;;;;;;5048031;28;20206;-83
2022/06/16 03:09:06;;;;;;;1.70;0.77;;;20.80;99.90;;;;;;5048346;28;20710;-84
2022/06/16 03:11:34;;;;;;;0.33;0.33;;;20.90;99.90;;;;;;5046298;28;20304;-82
2022/06/16 03:13:59;;;;;;;0.40;0.40;;;20.80;99.90;;;;;;5049160;28;20236;-83
2022/06/16 03:16:25;;;;;;;0.63;0.60;;;20.50;99.90;;;;;;5049559;28;20205;-83
2022/06/16 03:18:51;;;;;;;0.70;0.70;;;20.40;99.90;;;;;;5048241;28;20654;-82
2022/06/16 03:21:17;;;;;;;0.73;0.57;;;20.40;99.90;;;;;;5048537;28;20572;-84
2022/06/16 03:23:42;;;;;;;0.60;0.60;;;20.30;99.90;;;;;;5043664;28;20710;-83
2022/06/16 03:26:08;;;;;;;0.30;0.30;;;20.30;99.90;;;;;;5049657;28;20296;-83
2022/06/16 03:28:34;;;;;;;1.27;0.60;;;20.40;99.90;;;;;;5041553;28;20579;-84
2022/06/16 03:31:00;;;;;;;0.70;0.70;;;20.50;99.90;;;;;;5047458;28;20279;-82
2022/06/16 03:33:25;;;;;;;0.50;0.50;;;20.50;99.90;;;;;;5048026;28;20631;-83
2022/06/16 03:35:51;;;;;;;0.50;0.50;;;20.40;99.90;;;;;;5063970;28;20296;-82
2022/06/16 03:38:28;;;;;;;0.43;0.43;;;20.50;99.90;;;;;;5046230;28;20189;-83
2022/06/16 03:40:54;;;;;;;0.40;0.40;;;20.20;99.90;;;;;;5044181;28;20235;-83
2022/06/16 03:43:19;;;;;;;0.50;0.50;;;20.10;99.90;;;;;;5044737;28;20201;-83
2022/06/16 03:45:45;;;;;;;0.50;0.50;;;20.20;99.90;;;;;;5045937;28;20217;-84
2022/06/16 03:48:11;;;;;;;0.70;0.70;;;20.20;99.90;;;;;;5048184;28;20201;-82
2022/06/16 03:50:36;;;;;;;0.50;0.50;;;20.20;99.90;;;;;;5048776;28;20214;-82
2022/06/16 03:53:02;;;;;;;0.37;0.37;;;20.10;99.90;;;;;;5048303;28;20209;-83
2022/06/16 03:55:28;;;;;;;0.40;0.40;;;20.00;99.90;;;;;;5047234;28;20217;-82
2022/06/16 03:57:54;;;;;;;0.30;0.30;;;20.20;99.90;;;;;;5040691;28;20193;-83
2022/06/16 04:00:21;;;;;;;1.60;0.97;;;20.50;99.90;;;;;;5048721;28;20259;-83
2022/06/16 04:02:49;;;;;;;0.50;0.40;;;20.80;99.90;;;;;;5046786;28;20197;-82
2022/06/16 04:05:14;;;;;;;0.30;0.30;;;21.50;99.90;;;;;;5042053;28;20213;-83
2022/06/16 04:07:40;;;;;;;0.50;0.50;;;21.90;99.90;;;;;;5048151;28;20225;-83
2022/06/16 04:10:07;;;;;;;0.40;0.40;;;21.90;99.90;;;;;;5044685;28;21087;-82
2022/06/16 04:12:32;;;;;;;0.60;0.60;;;21.90;99.90;;;;;;5047098;28;20204;-82
2022/06/16 04:14:58;;;;;;;0.33;0.33;;;22.40;99.90;;;;;;5046528;28;20524;-83
2022/06/16 04:17:24;;;;;;;0.50;0.50;;;23.50;99.90;;;;;;5042011;28;20546;-84
2022/06/16 04:22:34;;;;;;;1.53;0.53;;;23.40;99.90;;;;;;5046891;28;20234;-82
2022/06/16 04:25:00;;;;;;;0.50;0.50;;;23.00;99.90;;;;;;5046873;28;20186;-82
2022/06/16 04:27:25;;;;;;;0.73;0.70;;;22.10;99.90;;;;;;5046672;28;20721;-82
2022/06/16 04:29:51;;;;;;;0.90;0.90;;;21.70;99.90;;;;;;5046905;28;21195;-83
2022/06/16 04:32:18;;;;;;;0.57;0.40;;;21.50;99.90;;;;;;5047169;28;20244;-82
2022/06/16 04:34:44;;;;;;;0.67;0.67;;;21.70;99.90;;;;;;5044410;28;20194;-83
2022/06/16 04:37:11;;;;;;;0.93;0.90;;;21.70;99.90;;;;;;5048126;28;20411;-83
2022/06/16 04:39:36;;;;;;;1.27;1.10;;;21.80;99.90;;;;;;5046976;28;20288;-83
2022/06/16 04:42:02;;;;;;;0.40;0.40;;;21.70;99.90;;;;;;5047971;28;20182;-84
2022/06/16 04:44:28;;;;;;;0.57;0.57;;;21.60;99.90;;;;;;5044022;28;20709;-83
2022/06/16 04:46:54;;;;;;;1.50;0.80;;;21.50;99.90;;;;;;5044880;28;20190;-82
2022/06/16 04:49:19;;;;;;;0.40;0.40;;;21.30;99.90;;;;;;5049630;28;20670;-83
2022/06/16 04:51:44;;;;;;;0.43;0.43;;;21.40;99.90;;;;;;5043549;28;20201;-82
2022/06/16 04:54:11;;;;;;;0.50;0.50;;;21.30;99.90;;;;;;5048152;28;20236;-82
2022/06/16 04:56:36;;;;;;;0.40;0.40;;;21.40;99.90;;;;;;5046930;28;20303;-82
2022/06/16 04:59:02;;;;;;;0.43;0.43;;;21.50;99.90;;;;;;5046375;28;20178;-83
2022/06/16 05:01:28;;;;;;;0.40;0.40;;;21.70;99.90;;;;;;5045419;28;20612;-82
2022/06/16 05:03:53;;;;;;;0.93;0.47;;;22.00;99.90;;;;;;5041529;28;20173;-83
2022/06/16 05:06:19;;;;;;;0.83;0.33;;;22.00;99.90;;;;;;5045684;28;20214;-83
2022/06/16 05:08:45;;;;;;;0.30;0.30;;;21.80;99.90;;;;;;5046234;28;20793;-83
2022/06/16 05:11:10;;;;;;;0.50;0.50;;;22.10;99.90;;;;;;5046218;28;20711;-83
2022/06/16 05:13:36;;;;;;;0.40;0.40;;;22.10;99.90;;;;;;5044573;28;20297;-83
2022/06/16 05:16:01;;;;;;;0.77;0.77;;;22.50;99.90;;;;;;5046923;28;20213;-83
2022/06/16 05:18:27;;;;;;;0.57;0.50;;;22.60;99.90;;;;;;5045285;28;20178;-83
2022/06/16 05:21:01;;;;;;;2.93;2.23;;;22.50;99.90;;;;;;5040086;28;20185;-83
2022/06/16 05:23:27;;;;;;;0.53;0.53;;;22.30;99.90;;;;;;5046634;28;20650;-81
2022/06/16 05:25:52;;;;;;;1.23;0.50;;;22.30;99.90;;;;;;5041720;28;20247;-81
2022/06/16 05:28:18;;;;;;;0.60;0.60;;;22.60;99.90;;;;;;5047960;28;20193;-82
2022/06/16 05:30:44;;;;;;;0.70;0.70;;;22.40;99.90;;;;;;5044704;28;20252;-82
2022/06/16 05:33:10;;;;;;;0.90;0.63;;;22.70;99.90;;;;;;5042275;28;20256;-82
2022/06/16 05:35:35;;;;;;;0.97;0.70;;;22.60;99.90;;;;;;5046678;28;20627;-82
2022/06/16 05:38:01;;;;;;;2.23;2.03;;;22.40;99.90;;;;;;5047603;28;20182;-81
2022/06/16 05:40:26;;;;;;;0.60;0.60;;;22.40;99.90;;;;;;5047695;28;20224;-82
2022/06/16 05:42:52;;;;;;;1.17;1.00;;;22.30;99.90;;;;;;5045786;28;20190;-81
2022/06/16 05:45:17;;;;;;;0.60;0.60;;;22.50;99.90;;;;;;5047854;28;20205;-81
2022/06/16 05:47:43;;;;;;;0.63;0.63;;;22.50;99.90;;;;;;5047140;28;20196;-81
2022/06/16 05:50:09;;;;;;;0.67;0.67;;;22.80;99.90;;;;;;5046530;28;20214;-83
2022/06/16 05:52:34;;;;;;;0.53;0.53;;;22.90;99.90;;;;;;5045773;28;21109;-81
2022/06/16 05:55:00;;;;;;;1.37;0.60;;;22.80;99.90;;;;;;5045547;28;20261;-81
2022/06/16 05:57:26;;;;;;;0.50;0.50;;;22.70;99.90;;;;;;5042693;28;20182;-82
2022/06/16 05:59:52;;;;;;;0.43;0.43;;;22.50;99.90;;;;;;5041084;28;20208;-81
2022/06/16 06:02:19;;;;;;;0.50;0.50;;;22.60;99.90;;;;;;5044836;28;20655;-81
2022/06/16 06:04:47;;;;;;;0.40;0.30;;;22.80;99.90;;;;;;5044986;28;20582;-81
2022/06/16 06:07:12;;;;;;;1.43;0.83;;;22.90;99.90;;;;;;5044673;28;20591;-81
2022/06/16 06:17:40;;;;;;;0.40;0.40;;;23.90;99.90;;;;;;5045119;28;20212;-82
2022/06/16 06:20:06;;;;;;;0.53;0.40;;;24.20;99.90;;;;;;5043743;28;20217;-82
2022/06/16 06:22:31;;;;;;;0.50;0.50;;;24.30;99.90;;;;;;5044612;28;20793;-82
2022/06/16 06:24:58;;;;;;;0.53;0.53;;;24.30;99.90;;;;;;5043183;28;20189;-82
2022/06/16 06:27:37;;;;;;;0.67;0.47;;;24.40;99.90;;;;;;5040850;28;20189;-83
2022/06/16 06:30:28;;;;;;;0.50;0.50;;;24.50;99.90;;;;;;5045496;28;20300;-82
2022/06/16 06:32:54;;;;;;;0.73;0.73;;;24.60;99.90;;;;;;5043358;28;20651;-82
2022/06/16 06:35:20;;;;;;;0.30;0.30;;;24.80;99.90;;;;;;5036035;28;20213;-83
2022/06/16 06:37:47;;;;;;;0.40;0.40;;;24.80;99.90;;;;;;5045401;28;20197;-83
2022/06/16 06:40:24;;;;;;;1.43;0.77;;;24.70;99.90;;;;;;5042468;28;20189;-83
2022/06/16 06:42:49;;;;;;;1.60;1.10;;;24.60;99.90;;;;;;5044816;28;20201;-83
2022/06/16 06:45:15;;;;;;;1.13;0.70;;;24.10;99.90;;;;;;5045477;28;20220;-83
2022/06/16 06:47:41;;;;;;;0.87;0.60;;;23.60;99.90;;;;;;5045645;28;20196;-83
2022/06/16 06:50:07;;;;;;;0.60;0.53;;;23.70;99.90;;;;;;5042218;28;20193;-83
2022/06/16 06:52:32;;;;;;;1.00;0.40;;;24.30;99.90;;;;;;5045632;28;20182;-82
2022/06/16 06:54:58;;;;;;;0.47;0.47;;;24.70;99.90;;;;;;5045003;28;20178;-82
2022/06/16 06:57:26;;;;;;;0.53;0.47;;;25.00;99.90;;;;;;5045061;28;20219;-82
2022/06/16 06:59:52;;;;;;;1.13;0.90;;;24.70;99.90;;;;;;5043902;28;20685;-83
2022/06/16 07:02:18;;;;;;;0.47;0.47;;;24.70;99.90;;;;;;5044820;28;20186;-83
2022/06/16 07:04:44;;;;;;;0.83;0.83;;;24.50;99.90;;;;;;5041308;28;20186;-82
2022/06/16 07:07:13;;;;;;;0.80;0.80;;;23.90;99.90;;;;;;5042555;28;21016;-82
2022/06/16 07:09:38;;;;;;;1.43;1.03;;;24.30;99.90;;;;;;5039261;28;21395;-83
2022/06/16 07:12:13;;;;;;;0.40;0.40;;;24.40;99.90;;;;;;5043849;28;20253;-82
2022/06/16 07:14:42;;;;;;;2.23;0.73;;;24.60;99.90;;;;;;5038653;28;20181;-82
2022/06/16 07:17:08;;;;;;;0.30;0.30;;;25.00;99.90;;;;;;5042723;28;20252;-84
2022/06/16 07:19:35;;;;;;;0.40;0.40;;;25.20;99.90;;;;;;5043479;28;20224;-82
2022/06/16 07:22:01;;;;;;;1.63;1.27;;;25.40;99.90;;;;;;5043538;28;20754;-82
2022/06/16 07:24:27;;;;;;;1.27;1.03;;;25.30;99.90;;;;;;5042734;28;20284;-83
2022/06/16 07:26:53;;;;;;;0.50;0.50;;;25.30;99.90;;;;;;5041998;28;20205;-82
2022/06/16 07:29:18;;;;;;;1.23;1.00;;;24.80;99.90;;;;;;5040223;28;20220;-83
2022/06/16 07:31:44;;;;;;;0.47;0.47;;;24.60;99.90;;;;;;5042185;28;20296;-81
2022/06/16 07:34:09;;;;;;;0.83;0.70;;;24.90;99.90;;;;;;5040313;28;20209;-82
2022/06/16 07:36:35;;;;;;;0.50;0.50;;;25.00;99.90;;;;;;5060014;28;20682;-82
2022/06/16 07:39:01;;;;;;;0.67;0.67;;;25.00;99.90;;;;;;5043740;28;20186;-82
2022/06/16 07:41:34;;;;;;;0.57;0.57;;;25.00;99.90;;;;;;5038066;28;20212;-83
2022/06/16 07:44:09;;;;;;;0.70;0.70;;;24.90;99.90;;;;;;5044360;28;20178;-82
2022/06/16 07:46:35;;;;;;;0.97;0.80;;;24.80;99.90;;;;;;5043957;28;20213;-82
2022/06/16 07:49:02;;;;;;;0.37;0.37;;;24.30;99.90;;;;;;5044424;28;20190;-83
2022/06/16 07:51:28;;;;;;;0.40;0.40;;;24.90;99.90;;;;;;5044256;28;20214;-82
2022/06/16 07:53:53;;;;;;;0.70;0.70;;;25.20;99.90;;;;;;5042880;28;20278;-84
2022/06/16 07:56:20;;;;;;;0.50;0.50;;;25.40;99.90;;;;;;5039082;28;20665;-84
2022/06/16 07:58:46;;;;;;;0.53;0.53;;;25.40;99.90;;;;;;5041503;28;20192;-82
2022/06/16 08:01:11;;;;;;;0.70;0.70;;;25.30;99.90;;;;;;5042594;28;20189;-83
2022/06/16 08:03:37;;;;;;;1.00;0.83;;;25.30;99.90;;;;;;5047464;28;20206;-83
2022/06/16 08:06:08;;;;;;;0.80;0.80;;;25.00;99.90;;;;;;5047107;28;20252;-82
2022/06/16 08:08:33;;;;;;;0.80;0.80;;;24.80;99.90;;;;;;5044991;28;20190;-82
2022/06/16 08:10:59;;;;;;;0.97;0.60;;;24.90;99.90;;;;;;5046474;28;20668;-81
2022/06/16 08:13:26;;;;;;;0.90;0.70;;;24.80;99.90;;;;;;5045651;28;20193;-81
2022/06/16 08:15:52;;;;;;;1.87;1.47;;;24.90;99.90;;;;;;5046691;28;20221;-83
2022/06/16 08:18:22;;;;;;;1.33;1.23;;;24.70;99.90;;;;;;5047478;28;20190;-82
2022/06/16 08:20:49;;;;;;;0.87;0.83;;;25.00;99.90;;;;;;5046261;28;20200;-82
2022/06/16 08:23:15;;;;;;;2.37;2.00;;;25.00;99.90;;;;;;5041594;28;20563;-82
2022/06/16 08:25:43;;;;;;;1.57;1.30;;;24.40;99.90;;;;;;5047566;28;20206;-83
2022/06/16 08:28:12;;;;;;;1.23;0.63;;;24.70;99.90;;;;;;5046476;28;20197;-82
2022/06/16 08:30:41;;;;;;;2.43;1.07;;;24.90;99.90;;;;;;5044815;28;20317;-83
2022/06/16 08:33:09;;;;;;;0.63;0.63;;;25.10;99.90;;;;;;5040273;28;20182;-83
2022/06/16 08:35:35;;;;;;;0.77;0.77;;;24.80;99.90;;;;;;5039296;28;20205;-82
2022/06/16 08:38:01;;;;;;;0.70;0.70;;;25.20;99.90;;;;;;5044857;28;20659;-84
2022/06/16 08:40:28;;;;;;;1.23;0.70;;;25.70;99.90;;;;;;5045966;28;20185;-82
2022/06/16 08:43:10;;;;;;;0.67;0.67;;;25.70;99.90;;;;;;5044646;28;20190;-82
2022/06/16 08:45:43;;;;;;;0.80;0.80;;;25.80;99.90;;;;;;5045910;28;20311;-82
2022/06/16 08:48:11;;;;;;;1.67;1.10;;;25.70;99.90;;;;;;5046050;28;20193;-82
2022/06/16 08:50:56;;;;;;;1.30;0.90;;;25.80;99.90;;;;;;5044754;28;20298;-84
2022/06/16 08:53:33;;;;;;;0.60;0.60;;;25.80;99.90;;;;;;5040905;28;20184;-82
2022/06/16 08:56:08;;;;;;;2.60;1.30;;;26.40;99.90;;;;;;5045449;28;20201;-82
2022/06/16 08:58:46;;;;;;;0.50;0.50;;;26.50;99.90;;;;;;5041851;28;20534;-82
2022/06/16 09:01:24;;;;;;;0.87;0.87;;;26.60;99.90;;;;;;5040016;28;21775;-82
2022/06/16 09:04:14;;;;;;;0.60;0.60;;;26.90;99.90;;;;;;5044280;28;20224;-82
2022/06/16 09:06:59;;;;;;;1.20;1.10;;;27.10;99.90;;;;;;5045332;28;20683;-82
2022/06/16 09:12:40;;;;;;;1.48;1.08;;;26.50;99.90;;;;;;5046157;28;20204;-82
2022/06/16 09:15:14;;;;;;;0.80;0.80;;;26.30;99.90;;;;;;5044322;28;20264;-83
2022/06/16 09:17:59;;;;;;;1.30;1.00;;;26.60;99.90;;;;;;5045681;28;20186;-82
2022/06/16 09:20:40;;;;;;;0.70;0.70;;;26.70;99.90;;;;;;5045881;28;20260;-83
2022/06/16 09:23:34;;;;;;;0.90;0.90;;;26.70;99.90;;;;;;5042284;28;20200;-83
2022/06/16 09:26:24;;;;;;;1.00;1.00;;;25.90;99.90;;;;;;5042731;28;20255;-82
2022/06/16 09:29:11;;;;;;;1.30;1.20;;;26.10;99.90;;;;;;5048528;28;20206;-84
2022/06/16 09:31:49;;;;;;;1.13;1.07;;;25.80;99.90;;;;;;5047043;28;20271;-84
2022/06/16 09:34:33;;;;;;;0.65;0.65;;;26.40;99.90;;;;;;5046934;28;20185;-82
2022/06/16 09:37:05;;;;;;;0.77;0.77;;;26.50;99.90;;;;;;5051608;28;20198;-83
2022/06/16 09:39:35;;;;;;;1.00;0.97;;;26.60;99.90;;;;;;5043423;28;20185;-82
2022/06/16 09:42:37;;;;;;;0.75;0.70;;;26.90;99.90;;;;;;5044446;28;20186;-82
2022/06/16 09:45:10;;;;;;;1.85;1.75;;;26.50;99.90;;;;;;5044566;28;20177;-83
2022/06/16 09:47:52;;;;;;;0.90;0.75;;;27.10;99.90;;;;;;5045283;28;20181;-82
2022/06/16 09:50:28;;;;;;;1.45;0.88;;;27.20;99.90;;;;;;5044182;28;20209;-83
2022/06/16 09:53:17;;;;;;;0.80;0.80;;;27.50;99.90;;;;;;5044028;28;20650;-83
2022/06/16 09:55:49;;;;;;;1.20;0.88;;;27.70;99.90;;;;;;5035769;28;21296;-82
2022/06/16 09:58:30;;;;;;;2.20;0.77;;;27.70;99.90;;;;;;5046075;28;20182;-82
2022/06/16 10:00:59;;;;;;;1.90;1.08;;;27.80;99.90;;;;;;5043146;28;20212;-83
2022/06/16 10:04:03;;;;;;;1.45;0.95;;;27.20;99.90;;;;;;5041803;28;20189;-81
2022/06/16 10:06:54;;;;;;;0.43;0.43;;;26.70;99.90;;;;;;5005502;28;20314;-81
2022/06/16 10:09:28;;;;;;;2.17;1.35;;;27.30;99.90;;;;;;5060742;28;20213;-81
2022/06/16 10:12:04;;;;;;;0.60;0.60;;;27.70;99.90;;;;;;5045937;28;20210;-82
2022/06/16 10:14:48;;;;;;;1.48;1.00;;;27.90;99.90;;;;;;5046075;28;20190;-82
2022/06/16 10:17:17;;;;;;;1.08;1.08;;;28.00;99.90;;;;;;5046923;28;20307;-82
2022/06/16 10:19:44;;;;;;;1.02;1.02;;;27.30;99.90;;;;;;5043266;28;20182;-83
2022/06/16 10:22:16;;;;;;;1.25;1.17;;;27.30;99.90;;;;;;5044073;28;21571;-83
2022/06/16 10:24:50;;;;;;;1.10;1.00;;;27.00;99.90;;;;;;5045885;28;20674;-83
2022/06/16 10:27:18;;;;;;;1.33;1.30;;;27.20;99.90;;;;;;5047753;28;20224;-82
2022/06/16 10:29:58;;;;;;;0.90;0.70;;;27.40;99.90;;;;;;5039823;28;20292;-82
2022/06/16 10:32:39;;;;;;;0.63;0.63;;;27.80;99.90;;;;;;5047479;28;20202;-82
2022/06/16 10:35:08;;;;;;;0.73;0.73;;;28.00;99.90;;;;;;5045459;28;20181;-82
2022/06/16 10:37:40;;;;;;;1.10;0.70;;;28.40;99.90;;;;;;5048775;28;20190;-82
2022/06/16 10:40:24;;;;;;;0.65;0.60;;;28.30;99.90;;;;;;5049573;28;20432;-83
2022/06/16 10:43:08;;;;;;;0.60;0.60;;;28.60;99.90;;;;;;5053426;28;20258;-83
2022/06/16 10:45:35;;;;;;;0.60;0.60;;;28.30;99.90;;;;;;5042921;28;20215;-81
2022/06/16 10:48:03;;;;;;;1.10;1.08;;;28.50;99.90;;;;;;5046065;28;20181;-83
2022/06/16 10:50:56;;;;;;;0.98;0.73;;;28.60;99.90;;;;;;5049680;28;20573;-81
2022/06/16 10:53:27;;;;;;;0.40;0.40;;;28.60;99.90;;;;;;5047587;28;20274;-82
2022/06/16 10:56:01;;;;;;;0.40;0.32;;;28.80;99.90;;;;;;5047631;28;20201;-82
2022/06/16 10:58:31;;;;;;;0.88;0.50;;;28.40;99.90;;;;;;5049224;28;20173;-82
2022/06/16 11:01:23;;;;;;;0.90;0.90;;;28.60;99.90;;;;;;5048240;28;20177;-82
2022/06/16 11:04:03;;;;;;;0.40;0.40;;;28.50;99.90;;;;;;5046051;28;20181;-82
2022/06/16 11:06:29;;;;;;;0.60;0.60;;;28.90;99.90;;;;;;5046654;28;20733;-83
2022/06/16 11:09:02;;;;;;;0.88;0.60;;;29.10;99.90;;;;;;5047651;28;20247;-82
2022/06/16 11:11:39;;;;;;;0.43;0.43;;;28.70;99.90;;;;;;5048868;28;20932;-82
2022/06/16 11:14:16;;;;;;;0.80;0.80;;;28.70;99.90;;;;;;5048591;28;20185;-82
2022/06/16 11:16:48;;;;;;;0.73;0.60;;;28.30;99.90;;;;;;5043802;28;20203;-83
2022/06/16 11:19:24;;;;;;;0.68;0.68;;;28.30;99.90;;;;;;5050183;28;20414;-83
2022/06/16 11:21:51;;;;;;;0.55;0.55;;;28.40;99.90;;;;;;5047324;28;20181;-82
2022/06/16 11:24:30;;;;;;;0.40;0.40;;;28.10;99.90;;;;;;5049286;28;20190;-82
2022/06/16 11:27:14;;;;;;;0.57;0.57;;;28.40;99.90;;;;;;5054610;28;20194;-83
2022/06/16 11:29:40;;;;;;;0.43;0.43;;;28.00;99.90;;;;;;5053201;28;20197;-82
2022/06/16 11:32:19;;;;;;;1.10;0.80;;;28.10;99.90;;;;;;5052440;28;20224;-81
2022/06/16 11:34:46;;;;;;;0.60;0.60;;;27.60;99.90;;;;;;5052302;28;20233;-82
2022/06/16 11:37:37;;;;;;;0.98;0.80;;;28.00;99.90;;;;;;5051233;28;20702;-82
2022/06/16 11:40:33;;;;;;;0.70;0.70;;;28.20;99.90;;;;;;5049366;28;20666;-82
2022/06/16 11:43:03;;;;;;;0.98;0.90;;;27.90;99.90;;;;;;5057041;28;20295;-82
2022/06/16 11:45:44;;;;;;;0.20;0.20;;;28.00;99.90;;;;;;5050391;28;20210;-82
2022/06/16 11:48:28;;;;;;;0.30;0.30;;;28.10;99.90;;;;;;5045704;28;20182;-83
2022/06/16 11:51:24;;;;;;;0.55;0.52;;;28.50;99.90;;;;;;5051281;28;20546;-83
2022/06/16 11:54:09;;;;;;;0.40;0.40;;;28.80;99.90;;;;;;5049086;28;20194;-82
2022/06/16 11:56:57;;;;;;;0.47;0.47;;;28.60;99.90;;;;;;5048579;28;20223;-83
2022/06/16 11:59:57;;;;;;;0.57;0.57;;;28.80;99.90;;;;;;5046495;28;20228;-82
2022/06/16 12:02:33;;;;;;;0.40;0.40;;;28.90;99.90;;;;;;5047157;28;20243;-83
2022/06/16 12:05:27;;;;;;;1.50;0.85;;;29.10;99.90;;;;;;5046293;28;20653;-84
2022/06/16 12:08:18;;;;;;;0.68;0.68;;;29.00;99.90;;;;;;5045760;28;20181;-82
2022/06/16 12:10:55;;;;;;;0.52;0.50;;;29.00;99.90;;;;;;5048085;28;20198;-84
2022/06/16 12:13:39;;;;;;;0.70;0.43;;;28.80;99.90;;;;;;5042697;28;20268;-82
2022/06/16 12:16:28;;;;;;;0.50;0.50;;;28.90;99.90;;;;;;5045096;28;20208;-83
2022/06/16 12:19:12;;;;;;;0.40;0.40;;;29.00;99.90;;;;;;5047800;28;20193;-84
2022/06/16 12:21:53;;;;;;;0.30;0.30;;;29.20;99.90;;;;;;5049250;28;20678;-82
2022/06/16 12:24:24;;;;;;;0.60;0.60;;;29.10;99.90;;;;;;5048411;28;20213;-83
2022/06/16 12:27:02;;;;;;;0.77;0.77;;;28.90;99.90;;;;;;5044461;28;20213;-83
2022/06/16 12:29:38;;;;;;;0.68;0.68;;;29.10;99.90;;;;;;5047716;28;20225;-82
2022/06/16 12:32:10;;;;;;;1.00;1.00;;;29.10;99.90;;;;;;5047704;28;20202;-81
2022/06/16 12:34:53;;;;;;;0.93;0.50;;;29.10;99.90;;;;;;5047988;28;20196;-81
2022/06/16 12:37:24;;;;;;;0.60;0.60;;;29.00;99.90;;;;;;5048318;28;20231;-83
2022/06/16 12:40:05;;;;;;;0.22;0.22;;;29.10;99.90;;;;;;5052662;28;20193;-83
2022/06/16 12:42:38;;;;;;;0.30;0.30;;;29.10;99.90;;;;;;5046878;28;20189;-82
2022/06/16 12:45:14;;;;;;;0.60;0.60;;;29.00;99.90;;;;;;5045389;28;20187;-81
2022/06/16 12:47:49;;;;;;;0.93;0.55;;;28.60;99.90;;;;;;5050018;28;20208;-81
2022/06/16 12:50:31;;;;;;;0.50;0.50;;;28.80;99.90;;;;;;5050141;28;20204;-82
2022/06/16 12:53:13;;;;;;;0.55;0.55;;;28.90;99.90;;;;;;5048963;28;20268;-83
2022/06/16 12:55:53;;;;;;;0.63;0.38;;;29.00;99.90;;;;;;5052090;28;20223;-82
2022/06/16 12:58:34;;;;;;;0.63;0.57;;;28.80;99.90;;;;;;5048804;28;20182;-81
2022/06/16 13:01:04;;;;;;;0.45;0.45;;;28.70;99.90;;;;;;5046126;28;20185;-82
2022/06/16 13:03:32;;;;;;;0.38;0.38;;;28.80;99.90;;;;;;5050676;28;20193;-82
2022/06/16 13:05:58;;;;;;;0.63;0.63;;;28.20;99.90;;;;;;5052053;28;20584;-82
2022/06/16 13:08:26;;;;;;;0.43;0.40;;;27.50;99.90;;;;;;5049387;28;20194;-82
2022/06/16 13:11:04;;;;;;;0.30;0.30;;;27.50;99.90;;;;;;5050923;28;20221;-82
2022/06/16 13:13:37;;;;;;;0.95;0.60;;;27.80;99.90;;;;;;5050683;28;20185;-82
2022/06/16 13:16:05;;;;;;;1.02;0.75;;;27.70;99.90;;;;;;5049141;28;20223;-82
2022/06/16 13:18:40;;;;;;;0.47;0.40;;;28.20;99.90;;;;;;5049760;28;20185;-82
2022/06/16 13:21:07;;;;;;;0.80;0.63;;;28.40;99.90;;;;;;5049549;28;21156;-83
2022/06/16 13:23:41;;;;;;;0.65;0.43;;;28.80;99.90;;;;;;5049841;28;20272;-83
2022/06/16 13:26:16;;;;;;;0.73;0.70;;;28.80;99.90;;;;;;5047810;28;20233;-83
2022/06/16 13:29:09;;;;;;;0.40;0.40;;;29.00;99.90;;;;;;5051059;28;20926;-83
2022/06/16 13:31:43;;;;;;;1.35;0.55;;;29.10;99.90;;;;;;5050977;28;20229;-83